Race profile

Olympic Games
Rio de Janeiro BRA
14 Aug 2016
Road
Marathon
Record quality course
Single gender race
Women: 179.67 sec (4.25 sec/km)
Women: 921
Total: 133
Men: 0
Women: 133
Olympic Games

Results (women)

Finished Time Flags Given name Surname Alternate name Citizenship Birth date Prize money Actions
1 2:24:04 Jemima Sumgong Chelegat KEN 21 Dec 1984
2 2:24:13 Eunice Kirwa Jepkirui BRN 20 May 1984
3 2:24:30 Mare Dibaba Hurssa Ibrahimova ETH 20 Oct 1989
4 2:24:47 Tirfe Beyene Tsegay ETH 25 Nov 1984
5 2:24:48 Volha Mazuronalk BLR 14 Apr 1989
6 2:25:26 Shalane Flanagan USA 08 Jul 1981
7 2:26:08 Desiree Linden Davila USA 26 Jul 1983
8 2:27:36 Rose Chelimo BRN 12 Jul 1989
9 2:28:25 Amy Cragg Hastings USA 21 Jan 1984
10 2:28:36 Hye-Song Kim PRK 09 Mar 1993
11 2:28:36 Hye-Gyong Kim PRK 09 Mar 1993
12 2:29:32 Jelena Prokopcuka Celnova LAT 21 Sep 1976
13 2:29:44 Valeria Straneo ITA 05 Apr 1976
14 2:29:53 Kayoko Fukushi JPN 25 Mar 1982
15 2:29:55 Gladys-Luci Tejeda Pucuhuarainga PER 30 Sep 1985
16 2:30:39 Ana-Dulce Felix Ferreira POR 23 Oct 1982
17 2:30:48 Diana Lobacevske Maciusonyte LTU 07 Aug 1980
18 2:30:53 Milly Clark AUS 01 Mar 1989
19 2:31:12 Tomomi Tanaka JPN 25 Sep 1988
20 2:31:22 Fionnuala McCormack Britton IRL 24 Sep 1984
21 2:31:41 Iwona Lewandowska Bernardelli POL 19 Feb 1985
22 2:31:44 Jessica Trengove AUS 15 Aug 1987
23 2:32:49 Monika-Mariola Stefanowicz Drybulska POL 15 May 1980
24 2:33:08 Lanni Marchant CAN 11 Apr 1984
25 2:33:29 Catherine Bertone ITA 06 May 1972
26 2:33:51 Eva Vrabcova Nyvltova CZE 06 Feb 1986
27 2:34:05 Lilia Fiskovich Tozlovana MDA 29 Mar 1989
28 2:34:11 Alyson Dixon ENG 24 Sep 1978
29 2:34:27 Maja Neuenschwander SUI 13 Feb 1980
30 2:34:36 Sonia Samuels Thomas ENG 15 May 1979
31 2:34:41 Lisa-Jane Weightman AUS 16 Jan 1979
32 2:34:42 Madai Perez Carillo MEX 02 Feb 1980
33 2:34:57 Olga Kotovska UKR 05 Dec 1983
34 2:35:02 Maria-Azucena Diaz Calvo ESP 19 Dec 1982
35 2:35:29 Krista Duchene CAN 09 Jan 1977
36 2:35:49 Jovana delaCruz Capani PER 12 Jul 1992
37 2:35:50 Rasa Drazdauskaite LTU 20 Mar 1981
38 2:35:53 Vaida Zusinaite LTU 13 Jan 1988
39 2:36:11 Kit-ching Yiu HKG 20 Feb 1988
40 2:36:14 Jessica Petersson Draskau DEN 08 Sep 1977
41 2:36:32 Beata Naigambo Nandajala NAM 11 Mar 1980
42 2:36:50 Seul-Ki Ahn KOR 29 May 1992
43 2:37:05 Angie-Rocio Orjuela COL 27 Nov 1990
44 2:37:23 Anja Scherl Schneider GER 12 Apr 1986
45 2:37:34 Maryna Damantsevich BLR 06 Jun 1985
46 2:37:37 Mai Ito JPN 23 May 1984
47 2:37:39 Veerle Dejaeghere BEL 01 Aug 1973
48 2:38:15 Margarita Hernandez Flores MEX 03 Dec 1985
49 2:38:24 Kum-Ok Kim PRK 09 Dec 1985
50 2:38:37 Kenza Dahmani Tufahi ALG 18 Nov 1980